sensor_id;sensor_type;location;lat;lon;timestamp;P1;durP1;ratioP1;P2;durP2;ratioP2
71790;SDS011;59638;52.126;5.434;2024-03-25T00:01:28;10.93;;;0.32;;
71790;SDS011;59638;52.126;5.434;2024-03-25T00:03:54;9.00;;;1.23;;
71790;SDS011;59638;52.126;5.434;2024-03-25T00:06:19;1.60;;;0.20;;
71790;SDS011;59638;52.126;5.434;2024-03-25T00:08:45;6.88;;;0.20;;
71790;SDS011;59638;52.126;5.434;2024-03-25T00:11:10;3.00;;;0.30;;
71790;SDS011;59638;52.126;5.434;2024-03-25T00:13:36;6.13;;;0.40;;
71790;SDS011;59638;52.126;5.434;2024-03-25T00:16:01;10.13;;;0.77;;
71790;SDS011;59638;52.126;5.434;2024-03-25T00:18:27;7.90;;;0.50;;
71790;SDS011;59638;52.126;5.434;2024-03-25T00:20:52;10.67;;;1.00;;
71790;SDS011;59638;52.126;5.434;2024-03-25T00:23:18;5.63;;;0.60;;
71790;SDS011;59638;52.126;5.434;2024-03-25T00:25:43;8.63;;;0.57;;
71790;SDS011;59638;52.126;5.434;2024-03-25T00:28:09;8.45;;;0.60;;
71790;SDS011;59638;52.126;5.434;2024-03-25T00:30:34;8.40;;;0.50;;
71790;SDS011;59638;52.126;5.434;2024-03-25T00:33:00;8.37;;;0.80;;
71790;SDS011;59638;52.126;5.434;2024-03-25T00:35:25;7.10;;;0.20;;
71790;SDS011;59638;52.126;5.434;2024-03-25T00:37:52;11.73;;;0.30;;
71790;SDS011;59638;52.126;5.434;2024-03-25T00:40:18;6.78;;;0.52;;
71790;SDS011;59638;52.126;5.434;2024-03-25T00:42:43;12.13;;;0.73;;
71790;SDS011;59638;52.126;5.434;2024-03-25T00:45:09;10.53;;;0.50;;
71790;SDS011;59638;52.126;5.434;2024-03-25T00:47:34;9.43;;;0.60;;
71790;SDS011;59638;52.126;5.434;2024-03-25T00:50:00;10.77;;;0.67;;
71790;SDS011;59638;52.126;5.434;2024-03-25T00:52:26;6.00;;;0.75;;
71790;SDS011;59638;52.126;5.434;2024-03-25T00:54:51;8.60;;;0.30;;
71790;SDS011;59638;52.126;5.434;2024-03-25T00:57:17;7.53;;;0.57;;
71790;SDS011;59638;52.126;5.434;2024-03-25T00:59:43;4.63;;;0.30;;
71790;SDS011;59638;52.126;5.434;2024-03-25T01:02:09;7.47;;;0.60;;
71790;SDS011;59638;52.126;5.434;2024-03-25T01:04:34;8.80;;;0.30;;
71790;SDS011;59638;52.126;5.434;2024-03-25T01:07:00;8.43;;;0.53;;
71790;SDS011;59638;52.126;5.434;2024-03-25T01:09:25;3.30;;;0.82;;
71790;SDS011;59638;52.126;5.434;2024-03-25T01:11:51;2.17;;;0.10;;
71790;SDS011;59638;52.126;5.434;2024-03-25T01:14:17;7.88;;;0.70;;
71790;SDS011;59638;52.126;5.434;2024-03-25T01:16:42;0.95;;;0.20;;
71790;SDS011;59638;52.126;5.434;2024-03-25T01:19:08;3.23;;;0.40;;
71790;SDS011;59638;52.126;5.434;2024-03-25T01:21:34;3.92;;;0.57;;
71790;SDS011;59638;52.126;5.434;2024-03-25T01:24:00;4.47;;;0.60;;
71790;SDS011;59638;52.126;5.434;2024-03-25T01:26:26;4.70;;;0.60;;
71790;SDS011;59638;52.126;5.434;2024-03-25T01:28:52;3.00;;;0.20;;
71790;SDS011;59638;52.126;5.434;2024-03-25T01:31:18;4.18;;;0.10;;
71790;SDS011;59638;52.126;5.434;2024-03-25T01:33:44;3.55;;;0.20;;
71790;SDS011;59638;52.126;5.434;2024-03-25T01:36:10;5.35;;;0.47;;
71790;SDS011;59638;52.126;5.434;2024-03-25T01:38:41;3.97;;;0.33;;
71790;SDS011;59638;52.126;5.434;2024-03-25T01:41:08;4.80;;;0.20;;
71790;SDS011;59638;52.126;5.434;2024-03-25T01:43:35;10.30;;;0.38;;
71790;SDS011;59638;52.126;5.434;2024-03-25T01:46:01;7.32;;;0.90;;
71790;SDS011;59638;52.126;5.434;2024-03-25T01:48:26;8.60;;;0.70;;
71790;SDS011;59638;52.126;5.434;2024-03-25T01:50:52;2.88;;;0.30;;
71790;SDS011;59638;52.126;5.434;2024-03-25T01:53:18;5.17;;;0.27;;
71790;SDS011;59638;52.126;5.434;2024-03-25T01:55:45;5.53;;;0.20;;
71790;SDS011;59638;52.126;5.434;2024-03-25T01:58:11;3.80;;;0.30;;
71790;SDS011;59638;52.126;5.434;2024-03-25T02:00:37;3.40;;;0.30;;
71790;SDS011;59638;52.126;5.434;2024-03-25T02:03:03;9.18;;;0.90;;
71790;SDS011;59638;52.126;5.434;2024-03-25T02:05:30;8.55;;;0.40;;
71790;SDS011;59638;52.126;5.434;2024-03-25T02:07:55;12.10;;;1.25;;
71790;SDS011;59638;52.126;5.434;2024-03-25T02:10:22;3.47;;;0.25;;
71790;SDS011;59638;52.126;5.434;2024-03-25T02:12:47;9.00;;;0.57;;
71790;SDS011;59638;52.126;5.434;2024-03-25T02:15:14;4.68;;;0.20;;
71790;SDS011;59638;52.126;5.434;2024-03-25T02:17:41;3.87;;;0.30;;
71790;SDS011;59638;52.126;5.434;2024-03-25T02:20:07;8.95;;;0.90;;
71790;SDS011;59638;52.126;5.434;2024-03-25T02:22:35;15.57;;;0.85;;
71790;SDS011;59638;52.126;5.434;2024-03-25T02:25:01;6.28;;;0.70;;
71790;SDS011;59638;52.126;5.434;2024-03-25T02:27:31;9.60;;;0.60;;
71790;SDS011;59638;52.126;5.434;2024-03-25T02:30:07;5.10;;;0.38;;
71790;SDS011;59638;52.126;5.434;2024-03-25T02:32:35;8.68;;;0.47;;
71790;SDS011;59638;52.126;5.434;2024-03-25T02:35:01;5.53;;;0.75;;
71790;SDS011;59638;52.126;5.434;2024-03-25T02:37:28;8.73;;;0.93;;
71790;SDS011;59638;52.126;5.434;2024-03-25T02:39:55;8.57;;;0.40;;
71790;SDS011;59638;52.126;5.434;2024-03-25T02:42:27;20.10;;;0.63;;
71790;SDS011;59638;52.126;5.434;2024-03-25T02:44:54;16.92;;;0.73;;
71790;SDS011;59638;52.126;5.434;2024-03-25T02:47:20;4.93;;;0.28;;
71790;SDS011;59638;52.126;5.434;2024-03-25T02:49:46;8.93;;;0.60;;
71790;SDS011;59638;52.126;5.434;2024-03-25T02:52:11;6.97;;;0.43;;
71790;SDS011;59638;52.126;5.434;2024-03-25T02:54:37;4.40;;;0.38;;
71790;SDS011;59638;52.126;5.434;2024-03-25T02:57:02;12.97;;;0.60;;
71790;SDS011;59638;52.126;5.434;2024-03-25T02:59:28;5.70;;;1.13;;
71790;SDS011;59638;52.126;5.434;2024-03-25T03:01:53;11.75;;;0.60;;
71790;SDS011;59638;52.126;5.434;2024-03-25T03:04:19;4.67;;;0.47;;
71790;SDS011;59638;52.126;5.434;2024-03-25T03:06:44;6.80;;;0.40;;
71790;SDS011;59638;52.126;5.434;2024-03-25T03:09:10;9.03;;;0.70;;
71790;SDS011;59638;52.126;5.434;2024-03-25T03:11:35;7.25;;;0.20;;
71790;SDS011;59638;52.126;5.434;2024-03-25T03:14:01;7.97;;;0.70;;
71790;SDS011;59638;52.126;5.434;2024-03-25T03:16:26;7.87;;;0.60;;
71790;SDS011;59638;52.126;5.434;2024-03-25T03:18:52;3.80;;;0.73;;
71790;SDS011;59638;52.126;5.434;2024-03-25T03:21:17;7.83;;;0.40;;
71790;SDS011;59638;52.126;5.434;2024-03-25T03:23:43;5.57;;;0.20;;
71790;SDS011;59638;52.126;5.434;2024-03-25T03:26:08;6.30;;;0.40;;
71790;SDS011;59638;52.126;5.434;2024-03-25T03:28:34;2.47;;;0.20;;
71790;SDS011;59638;52.126;5.434;2024-03-25T03:30:59;5.30;;;0.40;;
71790;SDS011;59638;52.126;5.434;2024-03-25T03:33:24;7.10;;;0.20;;
71790;SDS011;59638;52.126;5.434;2024-03-25T03:35:51;6.73;;;0.20;;
71790;SDS011;59638;52.126;5.434;2024-03-25T03:38:17;11.07;;;0.47;;
71790;SDS011;59638;52.126;5.434;2024-03-25T03:40:42;2.10;;;0.73;;
71790;SDS011;59638;52.126;5.434;2024-03-25T03:43:09;5.47;;;0.30;;
71790;SDS011;59638;52.126;5.434;2024-03-25T03:45:35;1.75;;;0.25;;
71790;SDS011;59638;52.126;5.434;2024-03-25T03:48:00;8.95;;;0.40;;
71790;SDS011;59638;52.126;5.434;2024-03-25T03:50:26;17.87;;;0.73;;
71790;SDS011;59638;52.126;5.434;2024-03-25T03:52:52;0.95;;;0.20;;
71790;SDS011;59638;52.126;5.434;2024-03-25T03:55:17;4.00;;;0.20;;
71790;SDS011;59638;52.126;5.434;2024-03-25T03:57:43;11.47;;;0.37;;
71790;SDS011;59638;52.126;5.434;2024-03-25T04:00:09;8.07;;;0.53;;
71790;SDS011;59638;52.126;5.434;2024-03-25T04:02:36;3.67;;;0.28;;
71790;SDS011;59638;52.126;5.434;2024-03-25T04:05:03;12.00;;;0.50;;
71790;SDS011;59638;52.126;5.434;2024-03-25T04:07:29;6.10;;;0.73;;
71790;SDS011;59638;52.126;5.434;2024-03-25T04:09:57;8.13;;;0.40;;
71790;SDS011;59638;52.126;5.434;2024-03-25T04:12:22;1.53;;;0.10;;
71790;SDS011;59638;52.126;5.434;2024-03-25T04:14:48;3.70;;;0.22;;
71790;SDS011;59638;52.126;5.434;2024-03-25T04:17:16;7.50;;;0.30;;
71790;SDS011;59638;52.126;5.434;2024-03-25T04:19:42;3.40;;;0.20;;
71790;SDS011;59638;52.126;5.434;2024-03-25T04:22:07;3.67;;;0.10;;
71790;SDS011;59638;52.126;5.434;2024-03-25T04:24:33;2.43;;;0.20;;
71790;SDS011;59638;52.126;5.434;2024-03-25T04:26:59;1.60;;;0.17;;
71790;SDS011;59638;52.126;5.434;2024-03-25T04:29:25;10.52;;;0.70;;
71790;SDS011;59638;52.126;5.434;2024-03-25T04:31:50;2.53;;;0.35;;
71790;SDS011;59638;52.126;5.434;2024-03-25T04:34:16;1.50;;;0.33;;
71790;SDS011;59638;52.126;5.434;2024-03-25T04:36:41;2.13;;;0.10;;
71790;SDS011;59638;52.126;5.434;2024-03-25T04:39:07;6.43;;;0.50;;
71790;SDS011;59638;52.126;5.434;2024-03-25T04:41:33;1.40;;;0.20;;
71790;SDS011;59638;52.126;5.434;2024-03-25T04:43:59;4.63;;;0.25;;
71790;SDS011;59638;52.126;5.434;2024-03-25T04:46:24;1.40;;;0.20;;
71790;SDS011;59638;52.126;5.434;2024-03-25T04:48:50;2.20;;;0.20;;
71790;SDS011;59638;52.126;5.434;2024-03-25T04:51:15;5.07;;;0.30;;
71790;SDS011;59638;52.126;5.434;2024-03-25T04:53:41;0.53;;;0.10;;
71790;SDS011;59638;52.126;5.434;2024-03-25T04:56:06;1.00;;;0.30;;
71790;SDS011;59638;52.126;5.434;2024-03-25T04:58:32;1.90;;;0.13;;
71790;SDS011;59638;52.126;5.434;2024-03-25T05:00:57;2.33;;;0.32;;
71790;SDS011;59638;52.126;5.434;2024-03-25T05:03:23;2.23;;;0.20;;
71790;SDS011;59638;52.126;5.434;2024-03-25T05:05:48;2.23;;;0.20;;
71790;SDS011;59638;52.126;5.434;2024-03-25T05:08:14;1.60;;;0.20;;
71790;SDS011;59638;52.126;5.434;2024-03-25T05:10:39;6.43;;;0.10;;
71790;SDS011;59638;52.126;5.434;2024-03-25T05:13:05;1.93;;;0.30;;
71790;SDS011;59638;52.126;5.434;2024-03-25T05:15:30;2.63;;;0.20;;
71790;SDS011;59638;52.126;5.434;2024-03-25T05:17:56;7.13;;;0.30;;
71790;SDS011;59638;52.126;5.434;2024-03-25T05:20:21;3.63;;;0.57;;
71790;SDS011;59638;52.126;5.434;2024-03-25T05:22:47;1.70;;;0.20;;
71790;SDS011;59638;52.126;5.434;2024-03-25T05:25:13;5.30;;;0.30;;
71790;SDS011;59638;52.126;5.434;2024-03-25T05:27:38;12.70;;;0.40;;
71790;SDS011;59638;52.126;5.434;2024-03-25T05:30:04;0.82;;;0.10;;
71790;SDS011;59638;52.126;5.434;2024-03-25T05:32:30;2.80;;;0.30;;
71790;SDS011;59638;52.126;5.434;2024-03-25T05:34:55;0.20;;;0.10;;
71790;SDS011;59638;52.126;5.434;2024-03-25T05:37:21;7.20;;;0.30;;
71790;SDS011;59638;52.126;5.434;2024-03-25T05:39:46;0.60;;;0.10;;
71790;SDS011;59638;52.126;5.434;2024-03-25T05:42:12;0.57;;;0.20;;
71790;SDS011;59638;52.126;5.434;2024-03-25T05:44:38;3.13;;;0.20;;
71790;SDS011;59638;52.126;5.434;2024-03-25T05:47:03;2.20;;;0.25;;
71790;SDS011;59638;52.126;5.434;2024-03-25T05:49:29;1.17;;;0.10;;
71790;SDS011;59638;52.126;5.434;2024-03-25T05:51:55;4.17;;;0.60;;
71790;SDS011;59638;52.126;5.434;2024-03-25T05:54:20;26.15;;;0.70;;
71790;SDS011;59638;52.126;5.434;2024-03-25T05:56:46;2.73;;;0.40;;
71790;SDS011;59638;52.126;5.434;2024-03-25T05:59:11;0.40;;;0.10;;
71790;SDS011;59638;52.126;5.434;2024-03-25T06:01:37;6.67;;;0.20;;
71790;SDS011;59638;52.126;5.434;2024-03-25T06:04:03;0.98;;;0.17;;
71790;SDS011;59638;52.126;5.434;2024-03-25T06:06:29;6.45;;;0.47;;
71790;SDS011;59638;52.126;5.434;2024-03-25T06:08:54;6.03;;;0.70;;
71790;SDS011;59638;52.126;5.434;2024-03-25T06:11:20;3.05;;;0.20;;
71790;SDS011;59638;52.126;5.434;2024-03-25T06:13:46;7.60;;;0.80;;
71790;SDS011;59638;52.126;5.434;2024-03-25T06:16:12;7.03;;;0.68;;
71790;SDS011;59638;52.126;5.434;2024-03-25T06:18:38;2.50;;;0.30;;
71790;SDS011;59638;52.126;5.434;2024-03-25T06:21:05;15.00;;;1.00;;
71790;SDS011;59638;52.126;5.434;2024-03-25T06:23:31;3.05;;;0.40;;
71790;SDS011;59638;52.126;5.434;2024-03-25T06:25:57;5.40;;;0.30;;
71790;SDS011;59638;52.126;5.434;2024-03-25T06:28:23;2.20;;;0.33;;
71790;SDS011;59638;52.126;5.434;2024-03-25T06:30:48;3.55;;;0.63;;
71790;SDS011;59638;52.126;5.434;2024-03-25T06:33:33;4.83;;;0.50;;
71790;SDS011;59638;52.126;5.434;2024-03-25T06:36:18;3.88;;;0.45;;
71790;SDS011;59638;52.126;5.434;2024-03-25T06:38:44;2.42;;;0.70;;
71790;SDS011;59638;52.126;5.434;2024-03-25T06:41:10;3.28;;;0.77;;
71790;SDS011;59638;52.126;5.434;2024-03-25T06:43:36;4.87;;;0.73;;
71790;SDS011;59638;52.126;5.434;2024-03-25T06:46:03;7.00;;;0.85;;
71790;SDS011;59638;52.126;5.434;2024-03-25T06:48:29;7.72;;;1.08;;
71790;SDS011;59638;52.126;5.434;2024-03-25T06:50:55;4.13;;;0.90;;
71790;SDS011;59638;52.126;5.434;2024-03-25T06:53:21;9.32;;;1.15;;
71790;SDS011;59638;52.126;5.434;2024-03-25T06:55:54;7.10;;;1.02;;
71790;SDS011;59638;52.126;5.434;2024-03-25T06:58:23;6.63;;;1.30;;
71790;SDS011;59638;52.126;5.434;2024-03-25T07:00:50;6.57;;;0.90;;
71790;SDS011;59638;52.126;5.434;2024-03-25T07:03:16;7.50;;;1.23;;
71790;SDS011;59638;52.126;5.434;2024-03-25T07:05:45;6.15;;;1.05;;
71790;SDS011;59638;52.126;5.434;2024-03-25T07:08:12;11.38;;;1.48;;
71790;SDS011;59638;52.126;5.434;2024-03-25T07:10:38;9.37;;;1.60;;
71790;SDS011;59638;52.126;5.434;2024-03-25T07:13:04;5.40;;;1.00;;
71790;SDS011;59638;52.126;5.434;2024-03-25T07:15:31;6.28;;;1.73;;
71790;SDS011;59638;52.126;5.434;2024-03-25T07:17:56;12.52;;;0.82;;
71790;SDS011;59638;52.126;5.434;2024-03-25T07:20:23;15.93;;;1.08;;
71790;SDS011;59638;52.126;5.434;2024-03-25T07:22:48;4.07;;;1.70;;
71790;SDS011;59638;52.126;5.434;2024-03-25T07:25:14;7.33;;;1.40;;
71790;SDS011;59638;52.126;5.434;2024-03-25T07:27:39;13.13;;;1.52;;
71790;SDS011;59638;52.126;5.434;2024-03-25T07:30:06;13.53;;;2.07;;
71790;SDS011;59638;52.126;5.434;2024-03-25T07:32:32;10.73;;;1.50;;
71790;SDS011;59638;52.126;5.434;2024-03-25T07:34:59;15.57;;;1.23;;
71790;SDS011;59638;52.126;5.434;2024-03-25T07:37:25;12.83;;;1.43;;
71790;SDS011;59638;52.126;5.434;2024-03-25T07:39:50;7.20;;;1.40;;
71790;SDS011;59638;52.126;5.434;2024-03-25T07:42:16;6.30;;;1.33;;
71790;SDS011;59638;52.126;5.434;2024-03-25T07:44:42;13.20;;;1.48;;
71790;SDS011;59638;52.126;5.434;2024-03-25T07:47:07;9.67;;;1.73;;
71790;SDS011;59638;52.126;5.434;2024-03-25T07:49:33;9.32;;;1.70;;
71790;SDS011;59638;52.126;5.434;2024-03-25T07:52:02;8.15;;;1.40;;
71790;SDS011;59638;52.126;5.434;2024-03-25T07:54:28;10.50;;;1.40;;
71790;SDS011;59638;52.126;5.434;2024-03-25T07:56:54;13.60;;;1.38;;
71790;SDS011;59638;52.126;5.434;2024-03-25T07:59:19;14.03;;;2.53;;
71790;SDS011;59638;52.126;5.434;2024-03-25T08:01:45;8.50;;;1.80;;
71790;SDS011;59638;52.126;5.434;2024-03-25T08:04:10;11.77;;;1.23;;
71790;SDS011;59638;52.126;5.434;2024-03-25T08:06:36;8.70;;;1.23;;
71790;SDS011;59638;52.126;5.434;2024-03-25T08:09:01;4.07;;;1.13;;
71790;SDS011;59638;52.126;5.434;2024-03-25T08:11:30;13.40;;;1.42;;
71790;SDS011;59638;52.126;5.434;2024-03-25T08:13:56;12.98;;;1.35;;
71790;SDS011;59638;52.126;5.434;2024-03-25T08:16:22;4.93;;;0.90;;
71790;SDS011;59638;52.126;5.434;2024-03-25T08:18:47;7.15;;;1.10;;
71790;SDS011;59638;52.126;5.434;2024-03-25T08:21:13;9.00;;;1.03;;
71790;SDS011;59638;52.126;5.434;2024-03-25T08:23:38;5.53;;;0.37;;
71790;SDS011;59638;52.126;5.434;2024-03-25T08:26:04;7.35;;;0.88;;
71790;SDS011;59638;52.126;5.434;2024-03-25T08:28:29;8.70;;;0.63;;
71790;SDS011;59638;52.126;5.434;2024-03-25T08:30:55;7.77;;;0.90;;
71790;SDS011;59638;52.126;5.434;2024-03-25T08:33:20;6.22;;;0.98;;
71790;SDS011;59638;52.126;5.434;2024-03-25T08:35:46;7.47;;;0.50;;
71790;SDS011;59638;52.126;5.434;2024-03-25T08:38:11;7.50;;;0.63;;
71790;SDS011;59638;52.126;5.434;2024-03-25T08:40:37;7.00;;;0.75;;
71790;SDS011;59638;52.126;5.434;2024-03-25T08:43:02;6.93;;;0.50;;
71790;SDS011;59638;52.126;5.434;2024-03-25T08:45:28;9.87;;;0.93;;
71790;SDS011;59638;52.126;5.434;2024-03-25T08:47:53;5.80;;;0.95;;
71790;SDS011;59638;52.126;5.434;2024-03-25T08:50:19;7.07;;;0.87;;
71790;SDS011;59638;52.126;5.434;2024-03-25T08:52:44;7.00;;;0.80;;
71790;SDS011;59638;52.126;5.434;2024-03-25T08:55:10;6.15;;;0.73;;
71790;SDS011;59638;52.126;5.434;2024-03-25T08:57:36;9.63;;;0.67;;
71790;SDS011;59638;52.126;5.434;2024-03-25T09:00:02;7.00;;;0.65;;
71790;SDS011;59638;52.126;5.434;2024-03-25T09:02:29;6.95;;;0.90;;
71790;SDS011;59638;52.126;5.434;2024-03-25T09:04:54;12.37;;;1.23;;
71790;SDS011;59638;52.126;5.434;2024-03-25T09:07:20;7.40;;;0.93;;
71790;SDS011;59638;52.126;5.434;2024-03-25T09:09:45;9.30;;;0.85;;
71790;SDS011;59638;52.126;5.434;2024-03-25T09:12:30;6.53;;;0.77;;
71790;SDS011;59638;52.126;5.434;2024-03-25T09:14:55;6.45;;;0.68;;
71790;SDS011;59638;52.126;5.434;2024-03-25T09:17:21;8.97;;;0.93;;
71790;SDS011;59638;52.126;5.434;2024-03-25T09:19:48;8.80;;;1.05;;
71790;SDS011;59638;52.126;5.434;2024-03-25T09:22:13;9.00;;;0.60;;
71790;SDS011;59638;52.126;5.434;2024-03-25T09:24:39;3.63;;;0.63;;
71790;SDS011;59638;52.126;5.434;2024-03-25T09:27:04;13.02;;;0.50;;
71790;SDS011;59638;52.126;5.434;2024-03-25T09:29:30;9.73;;;1.00;;
71790;SDS011;59638;52.126;5.434;2024-03-25T09:31:56;6.88;;;2.03;;
71790;SDS011;59638;52.126;5.434;2024-03-25T09:34:22;5.53;;;1.40;;
71790;SDS011;59638;52.126;5.434;2024-03-25T09:36:47;8.73;;;1.23;;
71790;SDS011;59638;52.126;5.434;2024-03-25T09:39:12;9.20;;;1.55;;
71790;SDS011;59638;52.126;5.434;2024-03-25T09:41:41;7.57;;;1.43;;
71790;SDS011;59638;52.126;5.434;2024-03-25T09:44:08;11.45;;;1.25;;
71790;SDS011;59638;52.126;5.434;2024-03-25T09:46:35;13.10;;;1.33;;
71790;SDS011;59638;52.126;5.434;2024-03-25T09:49:02;6.60;;;1.40;;
71790;SDS011;59638;52.126;5.434;2024-03-25T09:51:30;6.80;;;1.03;;
71790;SDS011;59638;52.126;5.434;2024-03-25T09:53:57;9.15;;;0.70;;
71790;SDS011;59638;52.126;5.434;2024-03-25T09:56:23;5.70;;;1.83;;
71790;SDS011;59638;52.126;5.434;2024-03-25T09:58:48;5.93;;;1.07;;
71790;SDS011;59638;52.126;5.434;2024-03-25T10:01:14;6.80;;;1.40;;
71790;SDS011;59638;52.126;5.434;2024-03-25T10:03:40;11.13;;;0.70;;
71790;SDS011;59638;52.126;5.434;2024-03-25T10:06:05;7.57;;;1.00;;
71790;SDS011;59638;52.126;5.434;2024-03-25T10:08:33;9.17;;;1.20;;
71790;SDS011;59638;52.126;5.434;2024-03-25T10:11:00;5.65;;;0.85;;
71790;SDS011;59638;52.126;5.434;2024-03-25T10:13:27;7.20;;;1.17;;
71790;SDS011;59638;52.126;5.434;2024-03-25T10:15:52;14.90;;;1.13;;
71790;SDS011;59638;52.126;5.434;2024-03-25T10:18:20;8.38;;;1.05;;
71790;SDS011;59638;52.126;5.434;2024-03-25T10:20:49;11.30;;;1.40;;
71790;SDS011;59638;52.126;5.434;2024-03-25T10:23:25;8.25;;;1.25;;
71790;SDS011;59638;52.126;5.434;2024-03-25T10:25:54;8.73;;;1.10;;
71790;SDS011;59638;52.126;5.434;2024-03-25T10:28:20;5.17;;;1.23;;
71790;SDS011;59638;52.126;5.434;2024-03-25T10:30:46;9.95;;;1.40;;
71790;SDS011;59638;52.126;5.434;2024-03-25T10:33:12;9.70;;;1.05;;
71790;SDS011;59638;52.126;5.434;2024-03-25T10:35:39;4.73;;;0.73;;
71790;SDS011;59638;52.126;5.434;2024-03-25T10:38:10;9.50;;;1.40;;
71790;SDS011;59638;52.126;5.434;2024-03-25T10:40:37;7.88;;;1.65;;
71790;SDS011;59638;52.126;5.434;2024-03-25T10:43:10;6.60;;;0.80;;
71790;SDS011;59638;52.126;5.434;2024-03-25T10:48:19;3.22;;;0.63;;
71790;SDS011;59638;52.126;5.434;2024-03-25T10:50:51;4.43;;;0.90;;
71790;SDS011;59638;52.126;5.434;2024-03-25T10:53:18;8.00;;;1.65;;
71790;SDS011;59638;52.126;5.434;2024-03-25T10:55:48;7.47;;;1.27;;
71790;SDS011;59638;52.126;5.434;2024-03-25T10:58:16;6.50;;;1.00;;
71790;SDS011;59638;52.126;5.434;2024-03-25T11:00:43;6.40;;;0.98;;
71790;SDS011;59638;52.126;5.434;2024-03-25T11:03:09;2.77;;;1.27;;
71790;SDS011;59638;52.126;5.434;2024-03-25T11:05:35;4.43;;;1.10;;
71790;SDS011;59638;52.126;5.434;2024-03-25T11:08:11;10.38;;;1.10;;
71790;SDS011;59638;52.126;5.434;2024-03-25T11:10:42;5.82;;;1.00;;
71790;SDS011;59638;52.126;5.434;2024-03-25T11:13:12;4.22;;;0.73;;
71790;SDS011;59638;52.126;5.434;2024-03-25T11:15:42;4.27;;;0.80;;
71790;SDS011;59638;52.126;5.434;2024-03-25T11:20:38;5.30;;;0.82;;
71790;SDS011;59638;52.126;5.434;2024-03-25T11:23:08;6.45;;;1.15;;
71790;SDS011;59638;52.126;5.434;2024-03-25T11:25:36;7.33;;;0.50;;
71790;SDS011;59638;52.126;5.434;2024-03-25T11:28:02;7.72;;;0.90;;
71790;SDS011;59638;52.126;5.434;2024-03-25T11:30:27;4.72;;;0.60;;
71790;SDS011;59638;52.126;5.434;2024-03-25T11:32:55;5.00;;;1.20;;
71790;SDS011;59638;52.126;5.434;2024-03-25T11:35:20;5.17;;;1.23;;
71790;SDS011;59638;52.126;5.434;2024-03-25T11:37:46;5.22;;;0.95;;
71790;SDS011;59638;52.126;5.434;2024-03-25T11:40:13;2.95;;;0.85;;
71790;SDS011;59638;52.126;5.434;2024-03-25T11:42:39;3.70;;;1.10;;
71790;SDS011;59638;52.126;5.434;2024-03-25T11:45:06;6.40;;;0.90;;
71790;SDS011;59638;52.126;5.434;2024-03-25T11:47:33;8.40;;;1.33;;
71790;SDS011;59638;52.126;5.434;2024-03-25T11:49:59;3.17;;;1.05;;
71790;SDS011;59638;52.126;5.434;2024-03-25T11:52:29;4.07;;;0.93;;
71790;SDS011;59638;52.126;5.434;2024-03-25T11:54:55;4.47;;;1.10;;
71790;SDS011;59638;52.126;5.434;2024-03-25T11:57:21;2.90;;;0.82;;
71790;SDS011;59638;52.126;5.434;2024-03-25T11:59:47;6.68;;;1.05;;
71790;SDS011;59638;52.126;5.434;2024-03-25T12:02:15;4.00;;;1.03;;
71790;SDS011;59638;52.126;5.434;2024-03-25T12:04:44;3.83;;;0.73;;
71790;SDS011;59638;52.126;5.434;2024-03-25T12:07:11;2.53;;;0.80;;
71790;SDS011;59638;52.126;5.434;2024-03-25T12:09:37;3.85;;;1.13;;
71790;SDS011;59638;52.126;5.434;2024-03-25T12:12:21;3.20;;;1.00;;
71790;SDS011;59638;52.126;5.434;2024-03-25T12:14:47;5.43;;;0.80;;
71790;SDS011;59638;52.126;5.434;2024-03-25T12:17:13;3.30;;;1.13;;
71790;SDS011;59638;52.126;5.434;2024-03-25T12:19:39;5.90;;;1.33;;
71790;SDS011;59638;52.126;5.434;2024-03-25T12:22:06;4.37;;;1.03;;
71790;SDS011;59638;52.126;5.434;2024-03-25T12:24:33;4.53;;;1.20;;
71790;SDS011;59638;52.126;5.434;2024-03-25T12:26:59;7.63;;;1.20;;
71790;SDS011;59638;52.126;5.434;2024-03-25T12:29:24;4.32;;;1.00;;
71790;SDS011;59638;52.126;5.434;2024-03-25T12:31:56;4.20;;;0.77;;
71790;SDS011;59638;52.126;5.434;2024-03-25T12:34:22;3.03;;;0.95;;
71790;SDS011;59638;52.126;5.434;2024-03-25T12:36:50;2.85;;;0.80;;
71790;SDS011;59638;52.126;5.434;2024-03-25T12:39:17;5.00;;;0.60;;
71790;SDS011;59638;52.126;5.434;2024-03-25T12:41:44;2.08;;;0.60;;
71790;SDS011;59638;52.126;5.434;2024-03-25T12:44:11;3.45;;;0.73;;
71790;SDS011;59638;52.126;5.434;2024-03-25T12:46:38;1.67;;;0.90;;
71790;SDS011;59638;52.126;5.434;2024-03-25T12:49:05;2.23;;;0.87;;
71790;SDS011;59638;52.126;5.434;2024-03-25T12:51:31;3.45;;;1.02;;
71790;SDS011;59638;52.126;5.434;2024-03-25T12:53:57;1.30;;;0.47;;
71790;SDS011;59638;52.126;5.434;2024-03-25T12:56:23;4.17;;;1.47;;
71790;SDS011;59638;52.126;5.434;2024-03-25T12:58:49;1.80;;;0.63;;
71790;SDS011;59638;52.126;5.434;2024-03-25T13:01:15;6.25;;;0.90;;
71790;SDS011;59638;52.126;5.434;2024-03-25T13:03:41;5.37;;;1.77;;
71790;SDS011;59638;52.126;5.434;2024-03-25T13:06:07;5.30;;;1.00;;
71790;SDS011;59638;52.126;5.434;2024-03-25T13:08:33;3.10;;;1.20;;
71790;SDS011;59638;52.126;5.434;2024-03-25T13:10:58;3.00;;;1.20;;
71790;SDS011;59638;52.126;5.434;2024-03-25T13:13:25;4.60;;;1.08;;
71790;SDS011;59638;52.126;5.434;2024-03-25T13:15:51;3.55;;;1.35;;
71790;SDS011;59638;52.126;5.434;2024-03-25T13:18:16;7.47;;;1.40;;
71790;SDS011;59638;52.126;5.434;2024-03-25T13:20:43;8.70;;;1.00;;
71790;SDS011;59638;52.126;5.434;2024-03-25T13:23:09;3.33;;;1.00;;
71790;SDS011;59638;52.126;5.434;2024-03-25T13:25:35;3.28;;;0.60;;
71790;SDS011;59638;52.126;5.434;2024-03-25T13:28:00;5.17;;;0.77;;
71790;SDS011;59638;52.126;5.434;2024-03-25T13:30:26;4.77;;;0.80;;
71790;SDS011;59638;52.126;5.434;2024-03-25T13:32:52;2.03;;;0.80;;
71790;SDS011;59638;52.126;5.434;2024-03-25T13:35:18;4.47;;;0.70;;
71790;SDS011;59638;52.126;5.434;2024-03-25T13:37:43;3.10;;;0.80;;
71790;SDS011;59638;52.126;5.434;2024-03-25T13:40:09;2.30;;;0.65;;
71790;SDS011;59638;52.126;5.434;2024-03-25T13:42:37;3.85;;;0.88;;
71790;SDS011;59638;52.126;5.434;2024-03-25T13:45:06;4.90;;;1.05;;
71790;SDS011;59638;52.126;5.434;2024-03-25T13:47:32;4.40;;;1.10;;
71790;SDS011;59638;52.126;5.434;2024-03-25T13:50:01;3.42;;;0.60;;
71790;SDS011;59638;52.126;5.434;2024-03-25T13:52:28;3.60;;;0.90;;
71790;SDS011;59638;52.126;5.434;2024-03-25T13:54:53;5.07;;;0.90;;
71790;SDS011;59638;52.126;5.434;2024-03-25T13:57:19;3.57;;;1.13;;
71790;SDS011;59638;52.126;5.434;2024-03-25T13:59:44;1.53;;;0.53;;
71790;SDS011;59638;52.126;5.434;2024-03-25T14:02:09;2.30;;;0.73;;
71790;SDS011;59638;52.126;5.434;2024-03-25T14:04:35;3.07;;;1.00;;
71790;SDS011;59638;52.126;5.434;2024-03-25T14:07:00;1.67;;;0.70;;
71790;SDS011;59638;52.126;5.434;2024-03-25T14:09:26;4.07;;;0.73;;
71790;SDS011;59638;52.126;5.434;2024-03-25T14:11:52;1.57;;;0.40;;
71790;SDS011;59638;52.126;5.434;2024-03-25T14:14:17;1.50;;;0.47;;
71790;SDS011;59638;52.126;5.434;2024-03-25T14:16:43;1.90;;;0.80;;
71790;SDS011;59638;52.126;5.434;2024-03-25T14:19:09;4.93;;;0.40;;
71790;SDS011;59638;52.126;5.434;2024-03-25T14:21:34;1.47;;;0.40;;
71790;SDS011;59638;52.126;5.434;2024-03-25T14:24:00;3.40;;;0.50;;
71790;SDS011;59638;52.126;5.434;2024-03-25T14:26:25;3.72;;;0.60;;
71790;SDS011;59638;52.126;5.434;2024-03-25T14:28:51;2.33;;;0.60;;
71790;SDS011;59638;52.126;5.434;2024-03-25T14:31:16;6.03;;;0.77;;
71790;SDS011;59638;52.126;5.434;2024-03-25T14:33:42;6.03;;;0.63;;
71790;SDS011;59638;52.126;5.434;2024-03-25T14:36:07;2.90;;;0.80;;
71790;SDS011;59638;52.126;5.434;2024-03-25T14:38:33;3.93;;;0.57;;
71790;SDS011;59638;52.126;5.434;2024-03-25T14:40:59;2.85;;;0.47;;
71790;SDS011;59638;52.126;5.434;2024-03-25T14:43:25;2.08;;;0.43;;
71790;SDS011;59638;52.126;5.434;2024-03-25T14:45:50;3.43;;;0.57;;